sensor_id;sensor_type;location;lat;lon;timestamp;pressure;altitude;pressure_sealevel;temperature;humidity
60212;BME280;46079;48.686;15.598;2023-04-27T00:00:57;100149.56;;;20.53;45.30
60212;BME280;46079;48.686;15.598;2023-04-27T00:03:23;100152.19;;;20.53;45.42
60212;BME280;46079;48.686;15.598;2023-04-27T00:05:48;100147.91;;;20.52;45.62
60212;BME280;46079;48.686;15.598;2023-04-27T00:08:13;100147.91;;;20.52;45.49
60212;BME280;46079;48.686;15.598;2023-04-27T00:10:39;100149.56;;;20.53;45.51
60212;BME280;46079;48.686;15.598;2023-04-27T00:13:04;100142.66;;;20.52;45.75
60212;BME280;46079;48.686;15.598;2023-04-27T00:15:30;100145.28;;;20.52;45.73
60212;BME280;46079;48.686;15.598;2023-04-27T00:17:56;100145.16;;;20.53;45.65
60212;BME280;46079;48.686;15.598;2023-04-27T00:20:21;100140.03;;;20.52;45.43
60212;BME280;46079;48.686;15.598;2023-04-27T00:22:48;100137.41;;;20.52;45.60
60212;BME280;46079;48.686;15.598;2023-04-27T00:25:13;100132.97;;;20.52;45.69
60212;BME280;46079;48.686;15.598;2023-04-27T00:27:39;100134.78;;;20.52;45.76
60212;BME280;46079;48.686;15.598;2023-04-27T00:30:05;100139.06;;;20.53;45.68
60212;BME280;46079;48.686;15.598;2023-04-27T00:32:30;100131.19;;;20.53;45.78
60212;BME280;46079;48.686;15.598;2023-04-27T00:34:56;100141.69;;;20.53;45.71
60212;BME280;46079;48.686;15.598;2023-04-27T00:37:21;100132.03;;;20.53;45.88
60212;BME280;46079;48.686;15.598;2023-04-27T00:39:46;100132.03;;;20.53;45.93
60212;BME280;46079;48.686;15.598;2023-04-27T00:42:12;100137.16;;;20.55;45.91
60212;BME280;46079;48.686;15.598;2023-04-27T00:44:41;100131.19;;;20.53;45.86
60212;BME280;46079;48.686;15.598;2023-04-27T00:47:06;100138.13;;;20.54;45.68
60212;BME280;46079;48.686;15.598;2023-04-27T00:49:32;100128.31;;;20.56;45.88
60212;BME280;46079;48.686;15.598;2023-04-27T00:51:58;100129.28;;;20.55;45.99
60212;BME280;46079;48.686;15.598;2023-04-27T00:54:24;100134.53;;;20.55;45.96
60212;BME280;46079;48.686;15.598;2023-04-27T00:56:51;100128.53;;;20.53;46.03
60212;BME280;46079;48.686;15.598;2023-04-27T00:59:17;100131.91;;;20.55;45.87
60212;BME280;46079;48.686;15.598;2023-04-27T01:01:44;100126.78;;;20.53;46.07
60212;BME280;46079;48.686;15.598;2023-04-27T01:04:10;100125.81;;;20.54;46.09
60212;BME280;46079;48.686;15.598;2023-04-27T01:06:36;100118.78;;;20.55;46.16
60212;BME280;46079;48.686;15.598;2023-04-27T01:09:02;100125.69;;;20.56;46.17
60212;BME280;46079;48.686;15.598;2023-04-27T01:11:29;100124.03;;;20.55;46.02
60212;BME280;46079;48.686;15.598;2023-04-27T01:13:55;100130.22;;;20.54;46.01
60212;BME280;46079;48.686;15.598;2023-04-27T01:16:21;100125.91;;;20.53;46.03
60212;BME280;46079;48.686;15.598;2023-04-27T01:18:46;100131.19;;;20.53;46.21
60212;BME280;46079;48.686;15.598;2023-04-27T01:21:12;100137.16;;;20.55;46.00
60212;BME280;46079;48.686;15.598;2023-04-27T01:23:37;100127.59;;;20.54;46.12
60212;BME280;46079;48.686;15.598;2023-04-27T01:26:03;100135.47;;;20.54;46.16
60212;BME280;46079;48.686;15.598;2023-04-27T01:28:28;100133.72;;;20.54;46.08
60212;BME280;46079;48.686;15.598;2023-04-27T01:30:54;100136.34;;;20.54;46.10
60212;BME280;46079;48.686;15.598;2023-04-27T01:33:20;100138.13;;;20.54;46.02
60212;BME280;46079;48.686;15.598;2023-04-27T01:35:45;100146.13;;;20.52;46.08
60212;BME280;46079;48.686;15.598;2023-04-27T01:38:11;100143.50;;;20.52;46.21
60212;BME280;46079;48.686;15.598;2023-04-27T01:40:37;100141.69;;;20.53;46.28
60212;BME280;46079;48.686;15.598;2023-04-27T01:43:02;100145.16;;;20.53;45.90
60212;BME280;46079;48.686;15.598;2023-04-27T01:45:28;100141.69;;;20.53;45.99
60212;BME280;46079;48.686;15.598;2023-04-27T01:47:53;100142.66;;;20.52;46.15
60212;BME280;46079;48.686;15.598;2023-04-27T01:50:21;100139.06;;;20.53;46.29
60212;BME280;46079;48.686;15.598;2023-04-27T01:52:47;100150.53;;;20.52;46.02
60212;BME280;46079;48.686;15.598;2023-04-27T01:55:12;100146.13;;;20.52;46.16
60212;BME280;46079;48.686;15.598;2023-04-27T01:57:38;100138.34;;;20.51;46.25
60212;BME280;46079;48.686;15.598;2023-04-27T02:00:04;100136.69;;;20.50;46.23
60212;BME280;46079;48.686;15.598;2023-04-27T02:02:30;100144.31;;;20.53;46.28
60212;BME280;46079;48.686;15.598;2023-04-27T02:04:55;100142.66;;;20.52;46.07
60212;BME280;46079;48.686;15.598;2023-04-27T02:07:20;100142.66;;;20.52;46.22
60212;BME280;46079;48.686;15.598;2023-04-27T02:09:46;100145.28;;;20.52;46.24
60212;BME280;46079;48.686;15.598;2023-04-27T02:12:11;100143.59;;;20.51;46.28
60212;BME280;46079;48.686;15.598;2023-04-27T02:14:37;100135.88;;;20.49;46.36
60212;BME280;46079;48.686;15.598;2023-04-27T02:17:02;100147.22;;;20.50;46.65
60212;BME280;46079;48.686;15.598;2023-04-27T02:19:27;100154.13;;;20.51;46.41
60212;BME280;46079;48.686;15.598;2023-04-27T02:21:53;100149.69;;;20.51;46.24
60212;BME280;46079;48.686;15.598;2023-04-27T02:24:18;100149.69;;;20.51;46.58
60212;BME280;46079;48.686;15.598;2023-04-27T02:26:44;100150.53;;;20.52;46.54
60212;BME280;46079;48.686;15.598;2023-04-27T02:29:10;100155.09;;;20.50;46.47
60212;BME280;46079;48.686;15.598;2023-04-27T02:31:35;100160.34;;;20.50;46.22
60212;BME280;46079;48.686;15.598;2023-04-27T02:34:00;100155.09;;;20.50;46.30
60212;BME280;46079;48.686;15.598;2023-04-27T02:36:26;100155.09;;;20.50;46.43
60212;BME280;46079;48.686;15.598;2023-04-27T02:38:52;100156.75;;;20.51;46.29
60212;BME280;46079;48.686;15.598;2023-04-27T02:41:17;100158.44;;;20.52;46.42
60212;BME280;46079;48.686;15.598;2023-04-27T02:43:43;100154.94;;;20.51;46.49
60212;BME280;46079;48.686;15.598;2023-04-27T02:46:08;100154.13;;;20.51;46.46
60212;BME280;46079;48.686;15.598;2023-04-27T02:48:33;100156.75;;;20.51;46.43
60212;BME280;46079;48.686;15.598;2023-04-27T02:51:02;100152.47;;;20.50;46.26
60212;BME280;46079;48.686;15.598;2023-04-27T02:53:28;100157.84;;;20.48;46.33
60212;BME280;46079;48.686;15.598;2023-04-27T02:55:53;100159.38;;;20.51;46.37
60212;BME280;46079;48.686;15.598;2023-04-27T02:58:19;100156.06;;;20.49;46.38
60212;BME280;46079;48.686;15.598;2023-04-27T03:00:44;100152.47;;;20.50;46.51
60212;BME280;46079;48.686;15.598;2023-04-27T03:03:10;100150.81;;;20.49;46.32
60212;BME280;46079;48.686;15.598;2023-04-27T03:05:35;100159.53;;;20.49;46.17
60212;BME280;46079;48.686;15.598;2023-04-27T03:08:01;100161.31;;;20.49;46.47
60212;BME280;46079;48.686;15.598;2023-04-27T03:10:26;100165.59;;;20.50;46.43
60212;BME280;46079;48.686;15.598;2023-04-27T03:12:52;100159.63;;;20.48;46.58
60212;BME280;46079;48.686;15.598;2023-04-27T03:15:17;100172.66;;;20.49;46.33
60212;BME280;46079;48.686;15.598;2023-04-27T03:17:43;100167.41;;;20.49;46.29
60212;BME280;46079;48.686;15.598;2023-04-27T03:20:08;100166.56;;;20.49;46.31
60212;BME280;46079;48.686;15.598;2023-04-27T03:22:35;100175.13;;;20.51;46.53
60212;BME280;46079;48.686;15.598;2023-04-27T03:25:00;100171.84;;;20.49;46.53
60212;BME280;46079;48.686;15.598;2023-04-27T03:27:26;100168.22;;;20.50;46.52
60212;BME280;46079;48.686;15.598;2023-04-27T03:29:51;100169.88;;;20.51;46.33
60212;BME280;46079;48.686;15.598;2023-04-27T03:32:20;100166.31;;;20.52;46.54
60212;BME280;46079;48.686;15.598;2023-04-27T03:34:45;100173.47;;;20.50;46.36
60212;BME280;46079;48.686;15.598;2023-04-27T03:37:11;100172.66;;;20.49;46.17
60212;BME280;46079;48.686;15.598;2023-04-27T03:39:36;100170.97;;;20.48;46.46
60212;BME280;46079;48.686;15.598;2023-04-27T03:42:02;100176.94;;;20.50;46.35
60212;BME280;46079;48.686;15.598;2023-04-27T03:44:28;100177.91;;;20.49;46.60
60212;BME280;46079;48.686;15.598;2023-04-27T03:46:55;100187.34;;;20.52;46.38
60212;BME280;46079;48.686;15.598;2023-04-27T03:49:21;100184.00;;;20.50;46.49
60212;BME280;46079;48.686;15.598;2023-04-27T03:51:47;100189.25;;;20.50;46.54
60212;BME280;46079;48.686;15.598;2023-04-27T03:54:12;100190.91;;;20.51;46.51
60212;BME280;46079;48.686;15.598;2023-04-27T03:56:37;100192.84;;;20.49;46.40
60212;BME280;46079;48.686;15.598;2023-04-27T03:59:03;100187.44;;;20.50;46.45
60212;BME280;46079;48.686;15.598;2023-04-27T04:01:29;100188.44;;;20.49;46.43
60212;BME280;46079;48.686;15.598;2023-04-27T04:03:55;100194.50;;;20.50;46.45
60212;BME280;46079;48.686;15.598;2023-04-27T04:06:20;100196.31;;;20.49;46.75
60212;BME280;46079;48.686;15.598;2023-04-27T04:08:46;100193.69;;;20.49;46.57
60212;BME280;46079;48.686;15.598;2023-04-27T04:11:11;100196.03;;;20.52;45.12
60212;BME280;46079;48.686;15.598;2023-04-27T04:13:36;100201.28;;;20.52;45.88
60212;BME280;46079;48.686;15.598;2023-04-27T04:16:06;100199.50;;;20.53;46.17
60212;BME280;46079;48.686;15.598;2023-04-27T04:18:32;100200.34;;;20.53;46.19
60212;BME280;46079;48.686;15.598;2023-04-27T04:20:58;100201.19;;;20.54;46.21
60212;BME280;46079;48.686;15.598;2023-04-27T04:23:23;100195.09;;;20.53;46.07
60212;BME280;46079;48.686;15.598;2023-04-27T04:25:49;100192.34;;;20.55;46.27
60212;BME280;46079;48.686;15.598;2023-04-27T04:28:14;100202.88;;;20.55;46.27
60212;BME280;46079;48.686;15.598;2023-04-27T04:30:40;100199.25;;;20.56;46.22
60212;BME280;46079;48.686;15.598;2023-04-27T04:33:07;100197.47;;;20.56;46.21
60212;BME280;46079;48.686;15.598;2023-04-27T04:35:33;100197.47;;;20.56;46.12
60212;BME280;46079;48.686;15.598;2023-04-27T04:38:01;100205.59;;;20.53;42.13
60212;BME280;46079;48.686;15.598;2023-04-27T04:40:27;100198.31;;;20.36;36.70
60212;BME280;46079;48.686;15.598;2023-04-27T04:42:52;100199.56;;;20.11;35.16
60212;BME280;46079;48.686;15.598;2023-04-27T04:45:17;100206.16;;;19.84;34.77
60212;BME280;46079;48.686;15.598;2023-04-27T04:47:43;100210.28;;;19.66;34.79
60212;BME280;46079;48.686;15.598;2023-04-27T04:50:08;100202.47;;;19.43;34.68
60212;BME280;46079;48.686;15.598;2023-04-27T04:52:34;100207.53;;;19.24;35.14
60212;BME280;46079;48.686;15.598;2023-04-27T04:55:02;100205.56;;;19.05;35.25
60212;BME280;46079;48.686;15.598;2023-04-27T04:57:28;100211.78;;;18.93;35.44
60212;BME280;46079;48.686;15.598;2023-04-27T04:59:53;100210.25;;;18.79;35.58
60212;BME280;46079;48.686;15.598;2023-04-27T05:02:19;100203.78;;;18.72;36.62
60212;BME280;46079;48.686;15.598;2023-04-27T05:04:44;100205.59;;;18.82;41.42
60212;BME280;46079;48.686;15.598;2023-04-27T05:07:10;100210.09;;;18.92;43.02
60212;BME280;46079;48.686;15.598;2023-04-27T05:09:36;100210.06;;;19.03;44.42
60212;BME280;46079;48.686;15.598;2023-04-27T05:12:01;100214.94;;;19.19;44.61
60212;BME280;46079;48.686;15.598;2023-04-27T05:14:27;100214.66;;;19.33;45.13
60212;BME280;46079;48.686;15.598;2023-04-27T05:16:52;100219.75;;;19.46;44.53
60212;BME280;46079;48.686;15.598;2023-04-27T05:19:17;100216.25;;;19.57;44.68
60212;BME280;46079;48.686;15.598;2023-04-27T05:21:44;100226.84;;;19.66;45.60
60212;BME280;46079;48.686;15.598;2023-04-27T05:24:10;100215.75;;;19.74;45.34
60212;BME280;46079;48.686;15.598;2023-04-27T05:26:37;100218.81;;;19.79;44.39
60212;BME280;46079;48.686;15.598;2023-04-27T05:29:03;100224.53;;;19.84;44.11
60212;BME280;46079;48.686;15.598;2023-04-27T05:31:28;100225.09;;;19.88;43.89
60212;BME280;46079;48.686;15.598;2023-04-27T05:33:54;100229.00;;;19.93;44.00
60212;BME280;46079;48.686;15.598;2023-04-27T05:36:19;100220.91;;;19.96;44.14
60212;BME280;46079;48.686;15.598;2023-04-27T05:38:44;100229.19;;;20.02;43.96
60212;BME280;46079;48.686;15.598;2023-04-27T05:41:10;100232.44;;;20.05;44.11
60212;BME280;46079;48.686;15.598;2023-04-27T05:43:35;100224.28;;;20.08;44.08
60212;BME280;46079;48.686;15.598;2023-04-27T05:46:03;100231.75;;;20.13;43.84
60212;BME280;46079;48.686;15.598;2023-04-27T05:48:29;100227.81;;;20.18;44.14
60212;BME280;46079;48.686;15.598;2023-04-27T05:51:01;100229.78;;;20.26;43.99
60212;BME280;46079;48.686;15.598;2023-04-27T05:53:28;100238.09;;;20.31;43.88
60212;BME280;46079;48.686;15.598;2023-04-27T05:55:55;100240.19;;;20.37;43.89
60212;BME280;46079;48.686;15.598;2023-04-27T05:58:21;100250.34;;;20.42;43.41
60212;BME280;46079;48.686;15.598;2023-04-27T06:00:46;100248.97;;;20.48;43.49
60212;BME280;46079;48.686;15.598;2023-04-27T06:03:11;100254.94;;;20.50;43.45
60212;BME280;46079;48.686;15.598;2023-04-27T06:05:37;100251.34;;;20.51;43.50
60212;BME280;46079;48.686;15.598;2023-04-27T06:08:02;100257.44;;;20.51;43.84
60212;BME280;46079;48.686;15.598;2023-04-27T06:10:28;100257.56;;;20.50;43.97
60212;BME280;46079;48.686;15.598;2023-04-27T06:12:53;100266.16;;;20.52;43.95
60212;BME280;46079;48.686;15.598;2023-04-27T06:15:18;100271.41;;;20.52;44.03
60212;BME280;46079;48.686;15.598;2023-04-27T06:17:44;100269.75;;;20.51;43.82
60212;BME280;46079;48.686;15.598;2023-04-27T06:20:10;100274.75;;;20.54;44.03
60212;BME280;46079;48.686;15.598;2023-04-27T06:22:36;100272.03;;;20.55;43.95
60212;BME280;46079;48.686;15.598;2023-04-27T06:25:02;100273.66;;;20.56;44.01
60212;BME280;46079;48.686;15.598;2023-04-27T06:27:28;100269.28;;;20.57;44.09
60212;BME280;46079;48.686;15.598;2023-04-27T06:29:53;100279.25;;;20.63;43.79
60212;BME280;46079;48.686;15.598;2023-04-27T06:32:19;100264.88;;;20.67;43.58
60212;BME280;46079;48.686;15.598;2023-04-27T06:34:45;100267.25;;;20.70;43.61
60212;BME280;46079;48.686;15.598;2023-04-27T06:37:10;100271.56;;;20.71;43.17
60212;BME280;46079;48.686;15.598;2023-04-27T06:39:36;100266.28;;;20.71;43.52
60212;BME280;46079;48.686;15.598;2023-04-27T06:42:01;100268.09;;;20.71;43.43
60212;BME280;46079;48.686;15.598;2023-04-27T06:44:29;100267.94;;;20.72;43.71
60212;BME280;46079;48.686;15.598;2023-04-27T06:46:54;100275.84;;;20.72;43.63
60212;BME280;46079;48.686;15.598;2023-04-27T06:49:20;100277.50;;;20.73;43.52
60212;BME280;46079;48.686;15.598;2023-04-27T06:51:46;100275.84;;;20.72;43.57
60212;BME280;46079;48.686;15.598;2023-04-27T06:54:12;100285.53;;;20.72;43.62
60212;BME280;46079;48.686;15.598;2023-04-27T06:56:37;100282.91;;;20.72;43.59
60212;BME280;46079;48.686;15.598;2023-04-27T06:59:02;100275.72;;;20.74;43.72
60212;BME280;46079;48.686;15.598;2023-04-27T07:01:28;100280.81;;;20.75;43.79
60212;BME280;46079;48.686;15.598;2023-04-27T07:03:53;100288.59;;;20.77;43.87
60212;BME280;46079;48.686;15.598;2023-04-27T07:06:19;100278.91;;;20.77;43.63
60212;BME280;46079;48.686;15.598;2023-04-27T07:08:44;100284.03;;;20.79;43.40
60212;BME280;46079;48.686;15.598;2023-04-27T07:11:09;100268.28;;;20.79;43.66
60212;BME280;46079;48.686;15.598;2023-04-27T07:13:35;100273.38;;;20.80;43.99
60212;BME280;46079;48.686;15.598;2023-04-27T07:16:01;100272.41;;;20.81;43.69
60212;BME280;46079;48.686;15.598;2023-04-27T07:18:26;100274.09;;;20.82;43.67
60212;BME280;46079;48.686;15.598;2023-04-27T07:20:54;100267.75;;;20.85;43.66
60212;BME280;46079;48.686;15.598;2023-04-27T07:23:22;100264.13;;;20.86;43.59
60212;BME280;46079;48.686;15.598;2023-04-27T07:25:48;100263.19;;;20.87;43.77
60212;BME280;46079;48.686;15.598;2023-04-27T07:28:13;100265.66;;;20.88;43.81
60212;BME280;46079;48.686;15.598;2023-04-27T07:30:39;100263.88;;;20.89;44.00
60212;BME280;46079;48.686;15.598;2023-04-27T07:33:06;100257.78;;;20.88;44.08
60212;BME280;46079;48.686;15.598;2023-04-27T07:35:32;100269.00;;;20.91;44.70
60212;BME280;46079;48.686;15.598;2023-04-27T07:37:59;100265.41;;;20.92;44.61
60212;BME280;46079;48.686;15.598;2023-04-27T07:40:26;100268.72;;;20.94;44.97
60212;BME280;46079;48.686;15.598;2023-04-27T07:42:52;100265.28;;;20.93;45.03
60212;BME280;46079;48.686;15.598;2023-04-27T07:45:18;100262.50;;;20.95;45.00
60212;BME280;46079;48.686;15.598;2023-04-27T07:47:43;100265.28;;;20.93;44.83
60212;BME280;46079;48.686;15.598;2023-04-27T07:50:09;100275.66;;;20.95;44.84
60212;BME280;46079;48.686;15.598;2023-04-27T07:52:35;100265.13;;;20.95;44.75
60212;BME280;46079;48.686;15.598;2023-04-27T07:55:02;100269.56;;;20.94;44.82
60212;BME280;46079;48.686;15.598;2023-04-27T07:57:28;100266.94;;;20.94;44.73
60212;BME280;46079;48.686;15.598;2023-04-27T07:59:53;100262.66;;;20.93;44.64
60212;BME280;46079;48.686;15.598;2023-04-27T08:02:19;100268.72;;;20.94;44.89
60212;BME280;46079;48.686;15.598;2023-04-27T08:04:44;100273.16;;;20.93;44.71
60212;BME280;46079;48.686;15.598;2023-04-27T08:07:10;100272.19;;;20.94;44.76
60212;BME280;46079;48.686;15.598;2023-04-27T08:09:35;100267.75;;;20.95;44.86
60212;BME280;46079;48.686;15.598;2023-04-27T08:12:01;100268.63;;;20.95;44.79
60212;BME280;46079;48.686;15.598;2023-04-27T08:14:27;100270.38;;;20.95;45.01
60212;BME280;46079;48.686;15.598;2023-04-27T08:16:52;100273.00;;;20.95;44.88
60212;BME280;46079;48.686;15.598;2023-04-27T08:19:18;100275.66;;;20.95;44.97
60212;BME280;46079;48.686;15.598;2023-04-27T08:21:43;100274.69;;;20.96;44.83
60212;BME280;46079;48.686;15.598;2023-04-27T08:24:09;100276.34;;;20.97;44.75
60212;BME280;46079;48.686;15.598;2023-04-27T08:26:34;100271.09;;;20.97;44.69
60212;BME280;46079;48.686;15.598;2023-04-27T08:29:01;100272.75;;;20.98;44.65
60212;BME280;46079;48.686;15.598;2023-04-27T08:31:26;100269.28;;;20.97;44.81
60212;BME280;46079;48.686;15.598;2023-04-27T08:33:52;100272.75;;;20.98;44.53
60212;BME280;46079;48.686;15.598;2023-04-27T08:36:20;100279.69;;;20.99;44.56
60212;BME280;46079;48.686;15.598;2023-04-27T08:38:49;100275.38;;;20.98;44.53
60212;BME280;46079;48.686;15.598;2023-04-27T08:41:22;100273.59;;;20.98;44.47
60212;BME280;46079;48.686;15.598;2023-04-27T08:43:49;100276.22;;;20.98;44.37
60212;BME280;46079;48.686;15.598;2023-04-27T08:46:23;100274.44;;;20.99;44.31
60212;BME280;46079;48.686;15.598;2023-04-27T08:48:49;100277.88;;;20.99;44.35
60212;BME280;46079;48.686;15.598;2023-04-27T08:51:15;100272.75;;;20.98;44.23
60212;BME280;46079;48.686;15.598;2023-04-27T08:53:56;100272.63;;;20.99;44.21
60212;BME280;46079;48.686;15.598;2023-04-27T08:56:26;100268.34;;;20.98;44.20
60212;BME280;46079;48.686;15.598;2023-04-27T08:58:53;100268.34;;;20.98;44.17
60212;BME280;46079;48.686;15.598;2023-04-27T09:01:20;100273.47;;;21.00;43.85
60212;BME280;46079;48.686;15.598;2023-04-27T09:03:46;100270.97;;;20.98;43.78
60212;BME280;46079;48.686;15.598;2023-04-27T09:06:12;100274.44;;;20.99;43.61
60212;BME280;46079;48.686;15.598;2023-04-27T09:08:46;100265.56;;;21.00;43.31
60212;BME280;46079;48.686;15.598;2023-04-27T09:11:13;100266.53;;;20.99;42.60
60212;BME280;46079;48.686;15.598;2023-04-27T09:13:40;100263.75;;;21.00;41.92
60212;BME280;46079;48.686;15.598;2023-04-27T09:16:06;100269.16;;;20.99;41.47
60212;BME280;46079;48.686;15.598;2023-04-27T09:18:35;100262.22;;;20.98;41.40
60212;BME280;46079;48.686;15.598;2023-04-27T09:21:02;100266.53;;;20.99;41.60
60212;BME280;46079;48.686;15.598;2023-04-27T09:23:34;100257.81;;;20.98;41.33
60212;BME280;46079;48.686;15.598;2023-04-27T09:26:05;100265.84;;;20.97;41.68
60212;BME280;46079;48.686;15.598;2023-04-27T09:28:37;100271.09;;;20.97;41.89
60212;BME280;46079;48.686;15.598;2023-04-27T09:31:03;100270.13;;;20.98;42.23
60212;BME280;46079;48.686;15.598;2023-04-27T09:33:33;100264.84;;;20.98;42.28
60212;BME280;46079;48.686;15.598;2023-04-27T09:36:04;100270.97;;;20.98;42.43
60212;BME280;46079;48.686;15.598;2023-04-27T09:38:30;100264.84;;;20.98;42.58
60212;BME280;46079;48.686;15.598;2023-04-27T09:40:56;100264.84;;;20.98;42.51
60212;BME280;46079;48.686;15.598;2023-04-27T09:43:22;100261.28;;;20.99;42.59
60212;BME280;46079;48.686;15.598;2023-04-27T09:45:49;100259.59;;;20.98;42.55
60212;BME280;46079;48.686;15.598;2023-04-27T09:48:16;100257.81;;;20.98;42.37
60212;BME280;46079;48.686;15.598;2023-04-27T09:50:43;100255.31;;;20.97;42.50
60212;BME280;46079;48.686;15.598;2023-04-27T09:53:15;100251.72;;;20.98;42.34
60212;BME280;46079;48.686;15.598;2023-04-27T10:08:33;100236.91;;;20.97;41.99
60212;BME280;46079;48.686;15.598;2023-04-27T10:10:58;100235.09;;;20.97;42.08
60212;BME280;46079;48.686;15.598;2023-04-27T10:13:25;100236.91;;;20.97;42.10
60212;BME280;46079;48.686;15.598;2023-04-27T10:15:51;100234.28;;;20.97;42.31
60212;BME280;46079;48.686;15.598;2023-04-27T10:18:28;100236.91;;;20.97;42.41
60212;BME280;46079;48.686;15.598;2023-04-27T10:20:54;100234.28;;;20.97;40.83
60212;BME280;46079;48.686;15.598;2023-04-27T10:23:26;100230.00;;;20.96;41.30
60212;BME280;46079;48.686;15.598;2023-04-27T10:25:52;100230.81;;;20.96;41.74
60212;BME280;46079;48.686;15.598;2023-04-27T10:28:18;100228.19;;;20.96;41.36
60212;BME280;46079;48.686;15.598;2023-04-27T10:30:46;100222.94;;;20.96;41.71
60212;BME280;46079;48.686;15.598;2023-04-27T10:33:15;100230.94;;;20.95;41.71
60212;BME280;46079;48.686;15.598;2023-04-27T10:35:54;100223.06;;;20.95;41.97
60212;BME280;46079;48.686;15.598;2023-04-27T10:38:27;100228.31;;;20.95;41.94
60212;BME280;46079;48.686;15.598;2023-04-27T10:41:01;100226.53;;;20.95;42.48
60212;BME280;46079;48.686;15.598;2023-04-27T10:43:30;100219.59;;;20.94;42.10
60212;BME280;46079;48.686;15.598;2023-04-27T10:46:10;100217.78;;;20.95;42.13
60212;BME280;46079;48.686;15.598;2023-04-27T10:48:38;100217.78;;;20.95;42.11
60212;BME280;46079;48.686;15.598;2023-04-27T10:51:05;100217.94;;;20.93;42.30
60212;BME280;46079;48.686;15.598;2023-04-27T10:53:36;100214.34;;;20.94;42.49
60212;BME280;46079;48.686;15.598;2023-04-27T10:56:03;100214.34;;;20.94;42.59
60212;BME280;46079;48.686;15.598;2023-04-27T10:58:31;100207.28;;;20.95;42.85
60212;BME280;46079;48.686;15.598;2023-04-27T11:00:57;100209.22;;;20.93;42.61
60212;BME280;46079;48.686;15.598;2023-04-27T11:03:23;100217.13;;;20.93;42.63
60212;BME280;46079;48.686;15.598;2023-04-27T11:06:01;100214.50;;;20.93;42.56
60212;BME280;46079;48.686;15.598;2023-04-27T11:08:28;100199.66;;;20.92;42.74
60212;BME280;46079;48.686;15.598;2023-04-27T11:10:55;100207.53;;;20.92;42.58
60212;BME280;46079;48.686;15.598;2023-04-27T11:13:22;100207.53;;;20.92;42.84
60212;BME280;46079;48.686;15.598;2023-04-27T11:15:55;100211.88;;;20.93;42.65
60212;BME280;46079;48.686;15.598;2023-04-27T11:18:25;100211.88;;;20.93;42.75
60212;BME280;46079;48.686;15.598;2023-04-27T11:20:53;100210.19;;;20.92;43.02
60212;BME280;46079;48.686;15.598;2023-04-27T11:23:25;100213.63;;;20.92;42.91
60212;BME280;46079;48.686;15.598;2023-04-27T11:25:52;100215.44;;;20.92;42.87
60212;BME280;46079;48.686;15.598;2023-04-27T11:28:18;100212.81;;;20.92;42.91
60212;BME280;46079;48.686;15.598;2023-04-27T11:30:44;100211.00;;;20.92;43.01
60212;BME280;46079;48.686;15.598;2023-04-27T11:33:09;100212.81;;;20.92;42.92
60212;BME280;46079;48.686;15.598;2023-04-27T11:35:35;100210.19;;;20.92;42.79
60212;BME280;46079;48.686;15.598;2023-04-27T11:38:00;100207.53;;;20.92;42.88
60212;BME280;46079;48.686;15.598;2023-04-27T11:40:26;100208.53;;;20.91;42.96
60212;BME280;46079;48.686;15.598;2023-04-27T11:42:59;100216.25;;;20.92;42.98
60212;BME280;46079;48.686;15.598;2023-04-27T11:45:28;100208.53;;;20.91;42.79
60212;BME280;46079;48.686;15.598;2023-04-27T11:47:57;100204.09;;;20.91;42.95
60212;BME280;46079;48.686;15.598;2023-04-27T11:50:26;100203.25;;;20.91;42.98
60212;BME280;46079;48.686;15.598;2023-04-27T11:52:51;100193.56;;;20.91;42.94
60212;BME280;46079;48.686;15.598;2023-04-27T11:55:21;100199.66;;;20.92;42.92
60212;BME280;46079;48.686;15.598;2023-04-27T11:57:47;100207.53;;;20.92;42.98
60212;BME280;46079;48.686;15.598;2023-04-27T12:00:13;100200.47;;;20.92;43.00
60212;BME280;46079;48.686;15.598;2023-04-27T12:02:40;100193.44;;;20.93;43.05
60212;BME280;46079;48.686;15.598;2023-04-27T12:05:06;100194.41;;;20.92;42.85
60212;BME280;46079;48.686;15.598;2023-04-27T12:07:32;100199.66;;;20.92;42.95
60212;BME280;46079;48.686;15.598;2023-04-27T12:09:58;100196.19;;;20.91;42.95
60212;BME280;46079;48.686;15.598;2023-04-27T12:12:23;100188.44;;;20.90;42.87
60212;BME280;46079;48.686;15.598;2023-04-27T12:14:50;100191.06;;;20.90;43.12
60212;BME280;46079;48.686;15.598;2023-04-27T12:17:16;100192.75;;;20.91;43.07
60212;BME280;46079;48.686;15.598;2023-04-27T12:19:42;100185.81;;;20.90;42.96
60212;BME280;46079;48.686;15.598;2023-04-27T12:22:07;100187.50;;;20.91;43.18
60212;BME280;46079;48.686;15.598;2023-04-27T12:24:34;100186.66;;;20.90;43.14
60212;BME280;46079;48.686;15.598;2023-04-27T12:26:59;100180.53;;;20.90;43.00
60212;BME280;46079;48.686;15.598;2023-04-27T12:29:25;100186.66;;;20.90;43.20
60212;BME280;46079;48.686;15.598;2023-04-27T12:31:51;100179.59;;;20.91;43.01
60212;BME280;46079;48.686;15.598;2023-04-27T12:34:17;100175.28;;;20.90;43.02
60212;BME280;46079;48.686;15.598;2023-04-27T12:36:43;100172.66;;;20.90;42.95
60212;BME280;46079;48.686;15.598;2023-04-27T12:39:20;100176.97;;;20.91;43.07
60212;BME280;46079;48.686;15.598;2023-04-27T12:41:48;100172.66;;;20.90;42.96
60212;BME280;46079;48.686;15.598;2023-04-27T12:44:14;100172.66;;;20.90;42.89
60212;BME280;46079;48.686;15.598;2023-04-27T12:46:41;100162.13;;;20.90;42.86
60212;BME280;46079;48.686;15.598;2023-04-27T12:49:08;100170.03;;;20.90;43.01